Mikiona — WDD5057 — position and weather

sailwx.info

Track history (hours):
 
Tides and Currents Weather Stations Pressure Air Temp Water Temp Dewpoint Dewpoint Depression Visibility Wind Speed Wind Dir Waves Ship Positions

Mikiona

Owner: Sause Bros Inc, Coos Bay, OR. More information available from US FCC via Universal Licensing System and Coast Guard Vessel Documentation Center.

Last reported at 2018-Aug-16 08:22 UTC. Time now 2018-Aug-16 08:45 UTC.
Position N 33°46' W 118°13'.

Length 37 m; draft 5 m.

Type: Towing. MMSI: 367153070.

Date/timePositionNaut miles runAvg speedWind from/ knotsBaromVisibWave heightAir tempDewpointWater temp
2018-Aug-16 08:22N 33°46' W 118°13'0 0.0
2018-Aug-16 07:52N 33°46' W 118°13'0 0.0
2018-Aug-16 07:28N 33°46' W 118°13'0 0.0
2018-Aug-16 06:55N 33°46' W 118°13'0 0.0
2018-Aug-16 06:28N 33°46' W 118°13'0 0.0
2018-Aug-16 05:58N 33°46' W 118°13'0 0.0
2018-Aug-16 05:25N 33°46' W 118°13'0 0.0
2018-Aug-16 04:55N 33°46' W 118°13'0 0.0
2018-Aug-16 04:28N 33°46' W 118°13'0 0.0
2018-Aug-16 03:55N 33°46' W 118°13'0 0.0
2018-Aug-16 03:28N 33°46' W 118°13'0 0.0
2018-Aug-16 02:52N 33°46' W 118°13'0 0.0
2018-Aug-16 02:28N 33°46' W 118°13'0 0.0
2018-Aug-16 01:58N 33°46' W 118°13'0 0.0
2018-Aug-16 01:25N 33°46' W 118°13'0 0.0
2018-Aug-16 00:58N 33°46' W 118°13'0 0.0
2018-Aug-16 00:28N 33°46' W 118°13'0 0.0
2018-Aug-15 23:58N 33°46' W 118°13'0 0.0
2018-Aug-15 23:25N 33°46' W 118°13'0 0.0
2018-Aug-15 22:55N 33°46' W 118°13'0 0.0
2018-Aug-15 22:28N 33°46' W 118°13'0 0.0
2018-Aug-15 21:55N 33°46' W 118°13'0 0.0
2018-Aug-15 21:28N 33°46' W 118°13'0 0.0
2018-Aug-15 20:58N 33°46' W 118°13'0 0.0
2018-Aug-15 20:22N 33°46' W 118°13'0 0.0
2018-Aug-15 19:55N 33°46' W 118°13'0 0.0
2018-Aug-15 19:28N 33°46' W 118°13'0 0.0
2018-Aug-15 18:58N 33°46' W 118°13'0 0.0
2018-Aug-15 18:28N 33°46' W 118°13'0 0.0
2018-Aug-15 17:58N 33°46' W 118°13'0 0.0
2018-Aug-15 17:28N 33°46' W 118°13'0 0.0
2018-Aug-15 16:55N 33°46' W 118°13'0 0.0
2018-Aug-15 16:28N 33°46' W 118°13'0 0.0
2018-Aug-15 15:58N 33°46' W 118°13'0 0.0
2018-Aug-15 15:28N 33°46' W 118°13'0 0.0
2018-Aug-15 15:00N 33°46' W 118°13'3 5.2
2018-Aug-15 14:30N 33°43' W 118°14'3 5.2
2018-Aug-15 14:00N 33°45' W 118°16'1 1.6
2018-Aug-15 13:30N 33°46' W 118°16'0 0.0
2018-Aug-15 13:00N 33°46' W 118°16'0 0.0
2018-Aug-15 12:30N 33°46' W 118°16'0 0.0
2018-Aug-15 12:00N 33°46' W 118°16'0 0.0
2018-Aug-15 11:30N 33°46' W 118°16'0 0.0
2018-Aug-15 11:00N 33°46' W 118°16'0 0.0
2018-Aug-15 10:30N 33°46' W 118°16'0 0.0
2018-Aug-15 10:00N 33°46' W 118°16'0 0.0
2018-Aug-15 09:30N 33°46' W 118°16'0 0.0
2018-Aug-15 09:00N 33°46' W 118°16'0 0.0
2018-Aug-15 08:30N 33°46' W 118°16'0 0.0
2018-Aug-15 08:00N 33°46' W 118°16'0 0.0
2018-Aug-15 07:30N 33°46' W 118°16'0 0.0
2018-Aug-15 07:00N 33°46' W 118°16'0 0.0
2018-Aug-15 06:30N 33°46' W 118°16'0 0.0
2018-Aug-15 06:00N 33°46' W 118°16'0 0.0
2018-Aug-15 05:30N 33°46' W 118°16'0 0.0
2018-Aug-15 05:00N 33°46' W 118°16'0 0.0
2018-Aug-15 04:30N 33°46' W 118°16'0 0.0
2018-Aug-15 04:00N 33°46' W 118°16'0 0.0
2018-Aug-15 03:30N 33°46' W 118°16'0 0.2
2018-Aug-15 03:01N 33°46' W 118°16'1 1.5
2018-Aug-15 02:30N 33°45' W 118°16'2 4.8
2018-Aug-15 02:01N 33°43' W 118°15'2 3.9
2018-Aug-15 01:31N 33°44' W 118°13'0 0.3
2018-Aug-15 01:00N 33°44' W 118°13'0 0.0
2018-Aug-15 00:30N 33°44' W 118°13'0 0.0
2018-Aug-15 00:00N 33°44' W 118°13'0 0.0
2018-Aug-14 23:30N 33°44' W 118°13'0 0.0
2018-Aug-14 23:00N 33°44' W 118°13'0 0.0
2018-Aug-14 22:30N 33°44' W 118°13'0 0.0
2018-Aug-14 22:00N 33°44' W 118°13'0 0.0
2018-Aug-14 21:30N 33°44' W 118°13'0 0.0
2018-Aug-14 21:00N 33°44' W 118°13'0 0.1
2018-Aug-14 20:30N 33°44' W 118°13'0 0.0
2018-Aug-14 20:00N 33°44' W 118°13'0 0.0
2018-Aug-14 19:30N 33°44' W 118°13'0 0.0
2018-Aug-14 19:00N 33°44' W 118°13'0 0.0
2018-Aug-14 18:30N 33°44' W 118°13'0 0.0
2018-Aug-14 18:00N 33°44' W 118°13'0 0.0
2018-Aug-14 17:30N 33°44' W 118°13'0 0.0
2018-Aug-14 17:00N 33°44' W 118°13'0 0.5
2018-Aug-14 16:30N 33°44' W 118°13'2 3.5
2018-Aug-14 16:01N 33°43' W 118°15'3 5.3
2018-Aug-14 15:31N 33°45' W 118°16'0 0.8
2018-Aug-14 15:01N 33°46' W 118°16'0 0.0
2018-Aug-14 14:30N 33°46' W 118°16'0 0.0
2018-Aug-14 14:00N 33°46' W 118°16'0 0.2
2018-Aug-14 13:31N 33°46' W 118°16'0 0.2
2018-Aug-14 13:00N 33°46' W 118°16'0 0.9
2018-Aug-14 12:30N 33°45' W 118°16'3 5.3
2018-Aug-14 12:01N 33°43' W 118°15'3 6.9
2018-Aug-14 11:30N 33°46' W 118°13'0 0.0
2018-Aug-14 11:00N 33°46' W 118°13'0 0.0
2018-Aug-14 10:30N 33°46' W 118°13'0 0.0
2018-Aug-14 10:00N 33°46' W 118°13'0 0.0
2018-Aug-14 09:30N 33°46' W 118°13'0 0.0
2018-Aug-14 09:00N 33°46' W 118°13'0 0.0
2018-Aug-14 08:30N 33°46' W 118°13'0 0.0
2018-Aug-14 08:01N 33°46' W 118°13'0 0.0
2018-Aug-14 07:30N 33°46' W 118°13'0 0.0
2018-Aug-14 06:59N 33°46' W 118°13'0 0.0
2018-Aug-14 06:30N 33°46' W 118°13'0 0.0
2018-Aug-14 06:00N 33°46' W 118°13'0 0.0
2018-Aug-14 05:30N 33°46' W 118°13'0 0.0
2018-Aug-14 05:00N 33°46' W 118°13'0 0.0
2018-Aug-14 04:30N 33°46' W 118°13'0 0.0
2018-Aug-14 04:00N 33°46' W 118°13'0 0.0
2018-Aug-14 03:30N 33°46' W 118°13'0 0.0
2018-Aug-14 03:01N 33°46' W 118°13'0 0.0
2018-Aug-14 02:31N 33°46' W 118°13'0 0.0
2018-Aug-14 02:00N 33°46' W 118°13'0 0.0
2018-Aug-14 01:30N 33°46' W 118°13'0 0.0
2018-Aug-14 01:00N 33°46' W 118°13'0 0.0
2018-Aug-14 00:30N 33°46' W 118°13'0 0.0
2018-Aug-14 00:01N 33°46' W 118°13'0 0.0
2018-Aug-13 23:30N 33°46' W 118°13'0 0.0
2018-Aug-13 23:00N 33°46' W 118°13'0 0.0
2018-Aug-13 22:30N 33°46' W 118°13'0 0.0
2018-Aug-13 22:00N 33°46' W 118°13'0 0.0
2018-Aug-13 21:30N 33°46' W 118°13'0 0.0
2018-Aug-13 21:00N 33°46' W 118°13'0 0.0
2018-Aug-13 20:31N 33°46' W 118°13'0 0.0
2018-Aug-13 20:00N 33°46' W 118°13'0 0.0
2018-Aug-13 19:30N 33°46' W 118°13'0 0.1
2018-Aug-13 19:01N 33°46' W 118°13'3 6.4
2018-Aug-13 18:30N 33°43' W 118°14'3 5.3
2018-Aug-13 18:00N 33°45' W 118°16'0 0.8
2018-Aug-13 17:31N 33°46' W 118°16'0 0.0
2018-Aug-13 17:00N 33°46' W 118°16'2 4.0
2018-Aug-13 16:30N 33°44' W 118°16'1 1.5
2018-Aug-13 16:00N 33°43' W 118°16'1 2.2
2018-Aug-13 15:30N 33°43' W 118°15'3 5.6
2018-Aug-13 15:00N 33°40' W 118°15'4 7.2
2018-Aug-13 14:31N 33°37' W 118°18'3 6.6
2018-Aug-13 14:00N 33°36' W 118°21'4 7.6
2018-Aug-13 13:30N 33°35' W 118°26'4 7.5
2018-Aug-13 13:00N 33°36' W 118°30'4 7.8
2018-Aug-13 12:30N 33°36' W 118°35'4 7.8
2018-Aug-13 12:00N 33°36' W 118°40'4 7.4
2018-Aug-13 11:30N 33°37' W 118°44'4 7.6
2018-Aug-13 11:00N 33°37' W 118°49'4 7.7
2018-Aug-13 10:30N 33°38' W 118°53'4 7.9
2018-Aug-13 10:01N 33°38' W 118°58'4 7.9
2018-Aug-13 09:31N 33°38' W 119°03'4 7.4
2018-Aug-13 09:00N 33°39' W 119°07'4 7.4
2018-Aug-13 08:30N 33°39' W 119°11'4 7.3
2018-Aug-13 07:58N 33°40' W 119°16'4 7.4
2018-Aug-13 07:29N 33°40' W 119°20'4 7.8
2018-Aug-13 07:00N 33°40' W 119°25'4 8.1
2018-Aug-13 06:30N 33°40' W 119°30'4 8.0
2018-Aug-13 06:00N 33°41' W 119°35'4 7.8
2018-Aug-13 05:30N 33°41' W 119°39'4 7.5
2018-Aug-13 05:00N 33°41' W 119°44'4 7.4
2018-Aug-13 04:30N 33°41' W 119°48'4 7.5
2018-Aug-13 04:00N 33°42' W 119°53'4 7.3
2018-Aug-13 03:30N 33°43' W 119°57'4 7.2
2018-Aug-13 03:00N 33°43' W 120°01'5 8.1
2018-Aug-13 02:21N 33°44' W 120°08'3 8.0
2018-Aug-13 02:00N 33°44' W 120°11'4 7.5
2018-Aug-13 01:28N 33°45' W 120°16'3 7.5
2018-Aug-13 01:01N 33°46' W 120°19'4 7.5
2018-Aug-13 00:30N 33°48' W 120°23'4 7.7
2018-Aug-13 00:00N 33°50' W 120°27'4 8.2
2018-Aug-12 23:30N 33°53' W 120°31'4 8.4
2018-Aug-12 23:00N 33°55' W 120°36'4 8.1
2018-Aug-12 22:29N 33°57' W 120°40'4 7.8
2018-Aug-12 21:56N 33°59' W 120°44'3 7.1
2018-Aug-12 21:29N 34°01' W 120°48'3 7.1
2018-Aug-12 21:00N 34°03' W 120°51'4 7.7
2018-Aug-12 20:30N 34°06' W 120°54'4 7.7
2018-Aug-12 19:57N 34°09' W 120°56'4 7.7
2018-Aug-12 19:28N 34°12' W 120°59'4 7.4
2018-Aug-12 18:59N 34°15' W 121°01'4 7.4
2018-Aug-12 18:30N 34°18' W 121°04'4 7.0
2018-Aug-12 17:59N 34°21' W 121°06'4 7.6
2018-Aug-12 17:30N 34°24' W 121°09'4 7.6
2018-Aug-12 17:00N 34°27' W 121°12'4 7.8
2018-Aug-12 16:30N 34°31' W 121°14'4 7.3
2018-Aug-12 16:00N 34°34' W 121°17'4 7.4
2018-Aug-12 15:30N 34°37' W 121°19'4 7.4
2018-Aug-12 15:00N 34°40' W 121°21'4 7.3
2018-Aug-12 14:30N 34°43' W 121°24'4 7.0
2018-Aug-12 14:00N 34°46' W 121°26'4 7.3
2018-Aug-12 13:26N 34°50' W 121°28'3 7.2
2018-Aug-12 13:00N 34°52' W 121°31'4 7.4
2018-Aug-12 12:30N 34°55' W 121°33'4 7.5
2018-Aug-12 12:01N 34°58' W 121°36'4 7.6
2018-Aug-12 11:30N 35°02' W 121°38'4 7.5
2018-Aug-12 11:00N 35°05' W 121°41'4 7.5
2018-Aug-12 10:30N 35°08' W 121°43'4 7.5
2018-Aug-12 10:00N 35°11' W 121°46'12 7.6
2018-Aug-12 08:27N 35°21' W 121°54'4 7.9
2018-Aug-12 08:00N 35°24' W 121°56'4 7.9
2018-Aug-12 07:30N 35°27' W 121°59'4 7.8
2018-Aug-12 06:59N 35°31' W 122°01'4 7.7
2018-Aug-12 06:30N 35°34' W 122°04'4 7.5
2018-Aug-12 06:00N 35°37' W 122°06'4 7.5
2018-Aug-12 05:30N 35°40' W 122°09'4 7.5
2018-Aug-12 05:00N 35°43' W 122°12'4 7.6
2018-Aug-12 04:30N 35°46' W 122°15'4 7.6
2018-Aug-12 04:00N 35°49' W 122°17'4 7.5
2018-Aug-12 03:30N 35°52' W 122°20'4 7.7
2018-Aug-12 03:00N 35°56' W 122°22'4 7.8
2018-Aug-12 02:30N 35°59' W 122°24'4 7.8
2018-Aug-12 02:00N 36°03' W 122°26'4 7.7
2018-Aug-12 01:30N 36°06' W 122°29'4 7.6
2018-Aug-12 01:00N 36°09' W 122°31'4 7.4
2018-Aug-12 00:30N 36°12' W 122°33'4 7.6
2018-Aug-12 00:00N 36°16' W 122°35'4 7.8
2018-Aug-11 23:30N 36°19' W 122°37'4 7.5
2018-Aug-11 23:00N 36°23' W 122°39'4 7.7
2018-Aug-11 22:30N 36°26' W 122°41'4 7.6
2018-Aug-11 22:00N 36°30' W 122°43'4 7.5
2018-Aug-11 21:30N 36°33' W 122°44'4 7.6
2018-Aug-11 21:00N 36°37' W 122°44'4 7.6
2018-Aug-11 20:30N 36°41' W 122°44'4 7.8
2018-Aug-11 20:00N 36°45' W 122°44'4 8.0
2018-Aug-11 19:27N 36°49' W 122°44'4 8.0
2018-Aug-11 19:00N 36°53' W 122°44'11 7.7
2018-Aug-11 17:38N 37°04' W 122°44'2 7.6
2018-Aug-11 17:24N 37°05' W 122°44'5 7.7
2018-Aug-11 16:48N 37°10' W 122°43'3 7.6
2018-Aug-11 16:28N 37°13' W 122°43'3 7.5
2018-Aug-11 16:00N 37°16' W 122°43'4 7.7
2018-Aug-11 15:30N 37°20' W 122°43'4 7.8
2018-Aug-11 15:00N 37°24' W 122°44'4 8.0
2018-Aug-11 14:30N 37°28' W 122°44'4 8.0
2018-Aug-11 14:00N 37°32' W 122°43'4 7.8
2018-Aug-11 13:30N 37°36' W 122°43'4 7.4
2018-Aug-11 13:00N 37°39' W 122°43'4 7.4
2018-Aug-11 12:29N 37°42' W 122°40'4 7.3
2018-Aug-11 11:57N 37°46' W 122°38'4 8.5
2018-Aug-11 11:30N 37°47' W 122°34'510.0
2018-Aug-11 11:00N 37°49' W 122°28'4 7.3
2018-Aug-11 10:30N 37°52' W 122°25'2 3.2
2018-Aug-11 10:00N 37°54' W 122°26'1 2.7
2018-Aug-11 09:28N 37°55' W 122°25'1 1.2
2018-Aug-11 09:00N 37°55' W 122°25'0 0.4
2018-Aug-11 08:31N 37°55' W 122°25'0 0.0
2018-Aug-11 08:00N 37°55' W 122°25'0 0.0
2018-Aug-11 07:30N 37°55' W 122°25'0 0.0
2018-Aug-11 07:00N 37°55' W 122°25'0 0.0
2018-Aug-11 06:30N 37°55' W 122°25'0 0.0
2018-Aug-11 06:00N 37°55' W 122°25'0 0.0
2018-Aug-11 05:30N 37°55' W 122°25'0 0.0
2018-Aug-11 05:00N 37°55' W 122°25'0 0.0
2018-Aug-11 04:30N 37°55' W 122°25'0 0.0
2018-Aug-11 04:00N 37°55' W 122°25'0 0.0
2018-Aug-11 03:30N 37°55' W 122°25'0 0.0
2018-Aug-11 02:57N 37°55' W 122°25'0 0.0
2018-Aug-11 02:30N 37°55' W 122°25'0 0.0
2018-Aug-11 01:54N 37°55' W 122°25'0 0.0
2018-Aug-11 01:18N 37°55' W 122°25'0 0.0
2018-Aug-11 00:57N 37°55' W 122°25'0 0.0
2018-Aug-11 00:27N 37°55' W 122°25'0 0.0
2018-Aug-10 23:57N 37°55' W 122°25'0 0.0
2018-Aug-10 23:30N 37°55' W 122°25'0 0.0
2018-Aug-10 23:00N 37°55' W 122°25'0 0.0
2018-Aug-10 22:30N 37°55' W 122°25'0 0.0
2018-Aug-10 21:57N 37°55' W 122°25'0 0.0
2018-Aug-10 21:27N 37°55' W 122°25'0 0.0
2018-Aug-10 21:00N 37°55' W 122°25'0 0.0
2018-Aug-10 20:30N 37°55' W 122°25'0 0.0
2018-Aug-10 20:00N 37°55' W 122°25'0 0.0
2018-Aug-10 19:30N 37°55' W 122°25'0 0.0
2018-Aug-10 19:00N 37°55' W 122°25'0 0.0
2018-Aug-10 18:30N 37°55' W 122°25'0 0.0
2018-Aug-10 17:51N 37°55' W 122°25'0 0.0
2018-Aug-10 17:09N 37°55' W 122°25'0 0.0
2018-Aug-10 16:06N 37°55' W 122°25'0 0.1
2018-Aug-10 16:00N 37°55' W 122°25'0 0.0
2018-Aug-10 14:06N 37°55' W 122°25'0 0.0
2018-Aug-10 13:36N 37°55' W 122°25'0 0.0
2018-Aug-10 13:18N 37°55' W 122°25'0 0.0
2018-Aug-10 12:54N 37°55' W 122°25'0 0.0
2018-Aug-10 12:21N 37°55' W 122°25'0 0.0
2018-Aug-10 11:18N 37°55' W 122°25'0 0.0
2018-Aug-10 10:54N 37°55' W 122°25'0 0.0
2018-Aug-10 10:27N 37°55' W 122°25'0 0.0
2018-Aug-10 09:54N 37°55' W 122°25'0 0.0
2018-Aug-10 09:18N 37°55' W 122°25'0 0.0
2018-Aug-10 09:00N 37°55' W 122°25'0 0.0
2018-Aug-10 08:30N 37°55' W 122°25'0 0.0
2018-Aug-10 08:00N 37°55' W 122°25'0 0.0
2018-Aug-10 07:30N 37°55' W 122°25'0 0.0
2018-Aug-10 07:00N 37°55' W 122°25'0 0.0
2018-Aug-10 06:30N 37°55' W 122°25'0 0.0
2018-Aug-10 06:00N 37°55' W 122°25'0 0.0
2018-Aug-10 04:51N 37°55' W 122°25'0 0.0
2018-Aug-10 04:27N 37°55' W 122°25'0 0.0
2018-Aug-10 04:00N 37°55' W 122°25'0 0.0
2018-Aug-10 03:30N 37°55' W 122°25'0 0.0
2018-Aug-10 03:00N 37°55' W 122°25'0 0.0
2018-Aug-10 02:30N 37°55' W 122°25'0 0.0
2018-Aug-10 02:00N 37°55' W 122°25'0 0.0
2018-Aug-10 01:30N 37°55' W 122°25'0 0.0
2018-Aug-10 00:51N 37°55' W 122°25'0 0.0
2018-Aug-10 00:27N 37°55' W 122°25'0 0.0
2018-Aug-09 23:57N 37°55' W 122°25'0 0.0
2018-Aug-09 23:21N 37°55' W 122°25'0 0.0
2018-Aug-09 22:51N 37°55' W 122°25'0 0.8
2018-Aug-09 22:30N 37°55' W 122°25'0 0.0
2018-Aug-09 22:00N 37°55' W 122°25'2 3.6
2018-Aug-09 21:30N 37°54' W 122°23'1 2.2
2018-Aug-09 21:00N 37°55' W 122°22'0 0.1
2018-Aug-09 20:30N 37°55' W 122°22'0 0.0
2018-Aug-09 19:48N 37°55' W 122°22'0 0.0
2018-Aug-09 19:30N 37°55' W 122°22'0 0.0
2018-Aug-09 19:00N 37°55' W 122°22'0 0.0
2018-Aug-09 18:24N 37°55' W 122°22'0 0.0
2018-Aug-09 18:00N 37°55' W 122°22'0 0.0
2018-Aug-09 17:30N 37°55' W 122°22'0 0.0
2018-Aug-09 16:54N 37°55' W 122°22'0 0.0
2018-Aug-09 16:30N 37°55' W 122°22'0 0.0
2018-Aug-09 16:00N 37°55' W 122°22'0 0.0
2018-Aug-09 15:27N 37°55' W 122°22'0 0.0
2018-Aug-09 14:54N 37°55' W 122°22'0 0.0
2018-Aug-09 14:30N 37°55' W 122°22'0 0.0
2018-Aug-09 14:00N 37°55' W 122°22'0 0.0
2018-Aug-09 13:30N 37°55' W 122°22'0 0.0
2018-Aug-09 13:00N 37°55' W 122°22'0 0.0
2018-Aug-09 12:30N 37°55' W 122°22'0 0.0
2018-Aug-09 11:57N 37°55' W 122°22'0 0.0
2018-Aug-09 11:30N 37°55' W 122°22'0 0.0
2018-Aug-09 11:00N 37°55' W 122°22'0 0.0
2018-Aug-09 10:30N 37°55' W 122°22'0 0.0
2018-Aug-09 10:00N 37°55' W 122°22'0 0.0
2018-Aug-09 09:30N 37°55' W 122°22'0 0.0
2018-Aug-09 09:00N 37°55' W 122°22'0 0.0
2018-Aug-09 08:30N 37°55' W 122°22'0 0.0
2018-Aug-09 08:00N 37°55' W 122°22'0 0.0
2018-Aug-09 07:30N 37°55' W 122°22'0 0.0
2018-Aug-09 07:00N 37°55' W 122°22'0 0.0
2018-Aug-09 06:30N 37°55' W 122°22'0 0.0
2018-Aug-09 06:00N 37°55' W 122°22'0 0.0
2018-Aug-09 05:30N 37°55' W 122°22'0 0.0
2018-Aug-09 05:00N 37°55' W 122°22'0 0.0
2018-Aug-09 04:27N 37°55' W 122°22'0 0.0
2018-Aug-09 04:00N 37°55' W 122°22'0 0.0
2018-Aug-09 03:30N 37°55' W 122°22'0 0.0
2018-Aug-09 03:00N 37°55' W 122°22'0 0.0
2018-Aug-09 02:30N 37°55' W 122°22'0 0.0
2018-Aug-09 02:00N 37°55' W 122°22'0 0.0
2018-Aug-09 01:30N 37°55' W 122°22'0 0.0
2018-Aug-09 00:57N 37°55' W 122°22'0 0.0
2018-Aug-09 00:30N 37°55' W 122°22'0 0.0
2018-Aug-09 00:00N 37°55' W 122°22'0 0.0
2018-Aug-08 23:30N 37°55' W 122°22'0 0.0
2018-Aug-08 23:00N 37°55' W 122°22'0 0.0
2018-Aug-08 22:30N 37°55' W 122°22'0 0.0
2018-Aug-08 22:00N 37°55' W 122°22'0 0.0
2018-Aug-08 21:30N 37°55' W 122°22'0 0.0
2018-Aug-08 20:57N 37°55' W 122°22'0 0.0
2018-Aug-08 20:30N 37°55' W 122°22'0 0.0
2018-Aug-08 20:00N 37°55' W 122°22'0 0.0
2018-Aug-08 19:30N 37°55' W 122°22'0 0.0
2018-Aug-08 19:00N 37°55' W 122°22'0 0.0
2018-Aug-08 18:30N 37°55' W 122°22'0 0.0
2018-Aug-08 18:00N 37°55' W 122°22'0 0.0
2018-Aug-08 17:27N 37°55' W 122°22'0 0.0
2018-Aug-08 16:57N 37°55' W 122°22'0 0.0
2018-Aug-08 16:27N 37°55' W 122°22'0 0.0
2018-Aug-08 15:54N 37°55' W 122°22'0 0.0
2018-Aug-08 15:30N 37°55' W 122°22'0 0.0
2018-Aug-08 15:00N 37°55' W 122°22'0 0.0
2018-Aug-08 14:30N 37°55' W 122°22'0 0.0
2018-Aug-08 14:00N 37°55' W 122°22'0 0.0
2018-Aug-08 13:30N 37°55' W 122°22'0 0.0
2018-Aug-08 13:00N 37°55' W 122°22'0 0.0
2018-Aug-08 12:27N 37°55' W 122°22'0 0.0
2018-Aug-08 11:51N 37°55' W 122°22'0 0.0
2018-Aug-08 11:30N 37°55' W 122°22'0 0.0
2018-Aug-08 11:00N 37°55' W 122°22'0 0.0
2018-Aug-08 10:30N 37°55' W 122°22'0 0.0
2018-Aug-08 10:00N 37°55' W 122°22'0 0.0
2018-Aug-08 09:30N 37°55' W 122°22'0 0.0
2018-Aug-08 09:00N 37°55' W 122°22'0 0.0
2018-Aug-08 08:30N 37°55' W 122°22'0 0.0
2018-Aug-08 08:00N 37°55' W 122°22'0 0.0
2018-Aug-08 07:30N 37°55' W 122°22'0 0.0
2018-Aug-08 07:00N 37°55' W 122°22'0 0.0
2018-Aug-08 06:30N 37°55' W 122°22'0 0.0
2018-Aug-08 06:00N 37°55' W 122°22'0 0.0
2018-Aug-08 05:30N 37°55' W 122°22'0 0.0
2018-Aug-08 05:00N 37°55' W 122°22'0 0.0
2018-Aug-08 04:30N 37°55' W 122°22'0 0.0
2018-Aug-08 04:00N 37°55' W 122°22'0 0.0
2018-Aug-08 03:30N 37°55' W 122°22'0 0.0
2018-Aug-08 03:00N 37°55' W 122°22'0 0.0
2018-Aug-08 02:30N 37°55' W 122°22'0 0.0
2018-Aug-08 01:57N 37°55' W 122°22'0 0.0
2018-Aug-08 01:30N 37°55' W 122°22'0 0.0
2018-Aug-08 01:00N 37°55' W 122°22'0 0.0
2018-Aug-08 00:30N 37°55' W 122°22'0 0.0
2018-Aug-08 00:00N 37°55' W 122°22'0 0.0
2018-Aug-07 23:30N 37°55' W 122°22'0 0.0
2018-Aug-07 23:00N 37°55' W 122°22'0 0.0
2018-Aug-07 22:30N 37°55' W 122°22'0 0.0
2018-Aug-07 22:00N 37°55' W 122°22'0 0.0
2018-Aug-07 21:30N 37°55' W 122°22'0 0.0
2018-Aug-07 21:00N 37°55' W 122°22'0 0.0
2018-Aug-07 20:30N 37°55' W 122°22'0 0.0
2018-Aug-07 20:00N 37°55' W 122°22'0 0.0
2018-Aug-07 19:30N 37°55' W 122°22'0 0.0
2018-Aug-07 19:00N 37°55' W 122°22'0 0.0
2018-Aug-07 18:30N 37°55' W 122°22'0 0.0
2018-Aug-07 17:57N 37°55' W 122°22'0 0.0
2018-Aug-07 17:30N 37°55' W 122°22'0 0.0
2018-Aug-07 17:00N 37°55' W 122°22'0 0.0
2018-Aug-07 16:30N 37°55' W 122°22'0 0.0
2018-Aug-07 16:00N 37°55' W 122°22'0 0.1
2018-Aug-07 15:27N 37°55' W 122°22'0 0.0
2018-Aug-07 14:57N 37°55' W 122°22'0 0.0
2018-Aug-07 14:30N 37°55' W 122°22'0 0.0
2018-Aug-07 14:00N 37°55' W 122°22'0 0.0
2018-Aug-07 13:30N 37°55' W 122°22'0 0.0
2018-Aug-07 13:00N 37°55' W 122°22'0 0.0
2018-Aug-07 12:30N 37°55' W 122°22'0 0.0
2018-Aug-07 12:00N 37°55' W 122°22'0 0.0
2018-Aug-07 11:30N 37°55' W 122°22'0 0.0
2018-Aug-07 11:00N 37°55' W 122°22'0 0.0
2018-Aug-07 10:30N 37°55' W 122°22'0 0.0
2018-Aug-07 10:00N 37°55' W 122°22'0 0.0
2018-Aug-07 09:30N 37°55' W 122°22'0 0.0
2018-Aug-07 09:00N 37°55' W 122°22'0 0.0
2018-Aug-07 08:30N 37°55' W 122°22'0 0.0
2018-Aug-07 08:00N 37°55' W 122°22'0 0.0
2018-Aug-07 07:30N 37°55' W 122°22'0 0.0
2018-Aug-07 07:00N 37°55' W 122°22'0 0.0
2018-Aug-07 06:30N 37°55' W 122°22'0 0.0
2018-Aug-07 06:00N 37°55' W 122°22'0 0.0
2018-Aug-07 05:30N 37°55' W 122°22'0 0.0
2018-Aug-07 05:00N 37°55' W 122°22'0 0.0
2018-Aug-07 04:30N 37°55' W 122°22'0 0.0
2018-Aug-07 04:00N 37°55' W 122°22'0 0.0
2018-Aug-07 03:30N 37°55' W 122°22'0 0.0
2018-Aug-07 02:57N 37°55' W 122°22'0 0.0
2018-Aug-07 02:30N 37°55' W 122°22'0 0.0
2018-Aug-07 02:00N 37°55' W 122°22'0 0.0
2018-Aug-07 01:27N 37°55' W 122°22'0 0.0
2018-Aug-07 01:00N 37°55' W 122°22'0 0.0
2018-Aug-07 00:30N 37°55' W 122°22'0 0.0
2018-Aug-07 00:00N 37°55' W 122°22'0 0.0
2018-Aug-06 23:30N 37°55' W 122°22'0 0.0
2018-Aug-06 22:57N 37°55' W 122°22'0 0.0
2018-Aug-06 22:30N 37°55' W 122°22'0 0.0
2018-Aug-06 22:00N 37°55' W 122°22'0 0.0
2018-Aug-06 21:30N 37°55' W 122°22'0 0.0
2018-Aug-06 20:57N 37°55' W 122°22'0 0.0
2018-Aug-06 20:27N 37°55' W 122°22'0 0.0
2018-Aug-06 20:00N 37°55' W 122°22'0 0.0
2018-Aug-06 19:27N 37°55' W 122°22'0 0.0
2018-Aug-06 19:00N 37°55' W 122°22'0 0.0
2018-Aug-06 18:30N 37°55' W 122°22'0 0.0
2018-Aug-06 18:00N 37°55' W 122°22'0 0.0
2018-Aug-06 17:30N 37°55' W 122°22'0 0.0
2018-Aug-06 16:54N 37°55' W 122°22'0 0.0
2018-Aug-06 16:30N 37°55' W 122°22'0 0.0
2018-Aug-06 16:00N 37°55' W 122°22'0 0.0
2018-Aug-06 15:30N 37°55' W 122°22'0 0.0
2018-Aug-06 15:00N 37°55' W 122°22'0 0.0
2018-Aug-06 14:30N 37°55' W 122°22'0 0.0
2018-Aug-06 14:00N 37°55' W 122°22'0 0.0
2018-Aug-06 13:30N 37°55' W 122°22'0 0.0
2018-Aug-06 13:00N 37°55' W 122°22'0 0.0
2018-Aug-06 12:30N 37°55' W 122°22'0 0.0
2018-Aug-06 12:00N 37°55' W 122°22'0 0.0
2018-Aug-06 11:30N 37°55' W 122°22'0 0.0
2018-Aug-06 11:00N 37°55' W 122°22'0 0.0
2018-Aug-06 10:30N 37°55' W 122°22'0 0.0
2018-Aug-06 10:00N 37°55' W 122°22'0 0.0
2018-Aug-06 09:30N 37°55' W 122°22'0 0.0
2018-Aug-06 09:00N 37°55' W 122°22'0 0.0
2018-Aug-06 08:30N 37°55' W 122°22'  
Track history (hours):
 
Tides and Currents Weather Stations Pressure Air Temp Water Temp Dewpoint Dewpoint Depression Visibility Wind Speed Wind Dir Waves Ship Positions

Mikiona

Owner: Sause Bros Inc, Coos Bay, OR. More information available from US FCC via Universal Licensing System and Coast Guard Vessel Documentation Center.

Last reported at 2018-Aug-16 08:22 UTC. Time now 2018-Aug-16 08:45 UTC.
Position N 33°46' W 118°13'.

Length 37 m; draft 5 m.

Type: Towing. MMSI: 367153070.

Date/timePositionNaut miles runAvg speedWind from/ knotsBaromVisibWave heightAir tempDewpointWater temp
2018-Aug-16 08:22N 33°46' W 118°13'0 0.0
2018-Aug-16 07:52N 33°46' W 118°13'0 0.0
2018-Aug-16 07:28N 33°46' W 118°13'0 0.0
2018-Aug-16 06:55N 33°46' W 118°13'0 0.0
2018-Aug-16 06:28N 33°46' W 118°13'0 0.0
2018-Aug-16 05:58N 33°46' W 118°13'0 0.0
2018-Aug-16 05:25N 33°46' W 118°13'0 0.0
2018-Aug-16 04:55N 33°46' W 118°13'0 0.0
2018-Aug-16 04:28N 33°46' W 118°13'0 0.0
2018-Aug-16 03:55N 33°46' W 118°13'0 0.0
2018-Aug-16 03:28N 33°46' W 118°13'0 0.0
2018-Aug-16 02:52N 33°46' W 118°13'0 0.0
2018-Aug-16 02:28N 33°46' W 118°13'0 0.0
2018-Aug-16 01:58N 33°46' W 118°13'0 0.0
2018-Aug-16 01:25N 33°46' W 118°13'0 0.0
2018-Aug-16 00:58N 33°46' W 118°13'0 0.0
2018-Aug-16 00:28N 33°46' W 118°13'0 0.0
2018-Aug-15 23:58N 33°46' W 118°13'0 0.0
2018-Aug-15 23:25N 33°46' W 118°13'0 0.0
2018-Aug-15 22:55N 33°46' W 118°13'0 0.0
2018-Aug-15 22:28N 33°46' W 118°13'0 0.0
2018-Aug-15 21:55N 33°46' W 118°13'0 0.0
2018-Aug-15 21:28N 33°46' W 118°13'0 0.0
2018-Aug-15 20:58N 33°46' W 118°13'0 0.0
2018-Aug-15 20:22N 33°46' W 118°13'0 0.0
2018-Aug-15 19:55N 33°46' W 118°13'0 0.0
2018-Aug-15 19:28N 33°46' W 118°13'0 0.0
2018-Aug-15 18:58N 33°46' W 118°13'0 0.0
2018-Aug-15 18:28N 33°46' W 118°13'0 0.0
2018-Aug-15 17:58N 33°46' W 118°13'0 0.0
2018-Aug-15 17:28N 33°46' W 118°13'0 0.0
2018-Aug-15 16:55N 33°46' W 118°13'0 0.0
2018-Aug-15 16:28N 33°46' W 118°13'0 0.0
2018-Aug-15 15:58N 33°46' W 118°13'0 0.0
2018-Aug-15 15:28N 33°46' W 118°13'0 0.0
2018-Aug-15 15:00N 33°46' W 118°13'3 5.2
2018-Aug-15 14:30N 33°43' W 118°14'3 5.2
2018-Aug-15 14:00N 33°45' W 118°16'1 1.6
2018-Aug-15 13:30N 33°46' W 118°16'0 0.0
2018-Aug-15 13:00N 33°46' W 118°16'0 0.0
2018-Aug-15 12:30N 33°46' W 118°16'0 0.0
2018-Aug-15 12:00N 33°46' W 118°16'0 0.0
2018-Aug-15 11:30N 33°46' W 118°16'0 0.0
2018-Aug-15 11:00N 33°46' W 118°16'0 0.0
2018-Aug-15 10:30N 33°46' W 118°16'0 0.0
2018-Aug-15 10:00N 33°46' W 118°16'0 0.0
2018-Aug-15 09:30N 33°46' W 118°16'0 0.0
2018-Aug-15 09:00N 33°46' W 118°16'0 0.0
2018-Aug-15 08:30N 33°46' W 118°16'0 0.0
2018-Aug-15 08:00N 33°46' W 118°16'0 0.0
2018-Aug-15 07:30N 33°46' W 118°16'0 0.0
2018-Aug-15 07:00N 33°46' W 118°16'0 0.0
2018-Aug-15 06:30N 33°46' W 118°16'0 0.0
2018-Aug-15 06:00N 33°46' W 118°16'0 0.0
2018-Aug-15 05:30N 33°46' W 118°16'0 0.0
2018-Aug-15 05:00N 33°46' W 118°16'0 0.0
2018-Aug-15 04:30N 33°46' W 118°16'0 0.0
2018-Aug-15 04:00N 33°46' W 118°16'0 0.0
2018-Aug-15 03:30N 33°46' W 118°16'0 0.2
2018-Aug-15 03:01N 33°46' W 118°16'1 1.5
2018-Aug-15 02:30N 33°45' W 118°16'2 4.8
2018-Aug-15 02:01N 33°43' W 118°15'2 3.9
2018-Aug-15 01:31N 33°44' W 118°13'0 0.3
2018-Aug-15 01:00N 33°44' W 118°13'0 0.0
2018-Aug-15 00:30N 33°44' W 118°13'0 0.0
2018-Aug-15 00:00N 33°44' W 118°13'0 0.0
2018-Aug-14 23:30N 33°44' W 118°13'0 0.0
2018-Aug-14 23:00N 33°44' W 118°13'0 0.0
2018-Aug-14 22:30N 33°44' W 118°13'0 0.0
2018-Aug-14 22:00N 33°44' W 118°13'0 0.0
2018-Aug-14 21:30N 33°44' W 118°13'0 0.0
2018-Aug-14 21:00N 33°44' W 118°13'0 0.1
2018-Aug-14 20:30N 33°44' W 118°13'0 0.0
2018-Aug-14 20:00N 33°44' W 118°13'0 0.0
2018-Aug-14 19:30N 33°44' W 118°13'0 0.0
2018-Aug-14 19:00N 33°44' W 118°13'0 0.0
2018-Aug-14 18:30N 33°44' W 118°13'0 0.0
2018-Aug-14 18:00N 33°44' W 118°13'0 0.0
2018-Aug-14 17:30N 33°44' W 118°13'0 0.0
2018-Aug-14 17:00N 33°44' W 118°13'0 0.5
2018-Aug-14 16:30N 33°44' W 118°13'2 3.5
2018-Aug-14 16:01N 33°43' W 118°15'3 5.3
2018-Aug-14 15:31N 33°45' W 118°16'0 0.8
2018-Aug-14 15:01N 33°46' W 118°16'0 0.0
2018-Aug-14 14:30N 33°46' W 118°16'0 0.0
2018-Aug-14 14:00N 33°46' W 118°16'0 0.2
2018-Aug-14 13:31N 33°46' W 118°16'0 0.2
2018-Aug-14 13:00N 33°46' W 118°16'0 0.9
2018-Aug-14 12:30N 33°45' W 118°16'3 5.3
2018-Aug-14 12:01N 33°43' W 118°15'3 6.9
2018-Aug-14 11:30N 33°46' W 118°13'0 0.0
2018-Aug-14 11:00N 33°46' W 118°13'0 0.0
2018-Aug-14 10:30N 33°46' W 118°13'0 0.0
2018-Aug-14 10:00N 33°46' W 118°13'0 0.0
2018-Aug-14 09:30N 33°46' W 118°13'0 0.0
2018-Aug-14 09:00N 33°46' W 118°13'0 0.0
2018-Aug-14 08:30N 33°46' W 118°13'0 0.0
2018-Aug-14 08:01N 33°46' W 118°13'0 0.0
2018-Aug-14 07:30N 33°46' W 118°13'0 0.0
2018-Aug-14 06:59N 33°46' W 118°13'0 0.0
2018-Aug-14 06:30N 33°46' W 118°13'0 0.0
2018-Aug-14 06:00N 33°46' W 118°13'0 0.0
2018-Aug-14 05:30N 33°46' W 118°13'0 0.0
2018-Aug-14 05:00N 33°46' W 118°13'0 0.0
2018-Aug-14 04:30N 33°46' W 118°13'0 0.0
2018-Aug-14 04:00N 33°46' W 118°13'0 0.0
2018-Aug-14 03:30N 33°46' W 118°13'0 0.0
2018-Aug-14 03:01N 33°46' W 118°13'0 0.0
2018-Aug-14 02:31N 33°46' W 118°13'0 0.0
2018-Aug-14 02:00N 33°46' W 118°13'0 0.0
2018-Aug-14 01:30N 33°46' W 118°13'0 0.0
2018-Aug-14 01:00N 33°46' W 118°13'0 0.0
2018-Aug-14 00:30N 33°46' W 118°13'0 0.0
2018-Aug-14 00:01N 33°46' W 118°13'0 0.0
2018-Aug-13 23:30N 33°46' W 118°13'0 0.0
2018-Aug-13 23:00N 33°46' W 118°13'0 0.0
2018-Aug-13 22:30N 33°46' W 118°13'0 0.0
2018-Aug-13 22:00N 33°46' W 118°13'0 0.0
2018-Aug-13 21:30N 33°46' W 118°13'0 0.0
2018-Aug-13 21:00N 33°46' W 118°13'0 0.0
2018-Aug-13 20:31N 33°46' W 118°13'0 0.0
2018-Aug-13 20:00N 33°46' W 118°13'0 0.0
2018-Aug-13 19:30N 33°46' W 118°13'0 0.1
2018-Aug-13 19:01N 33°46' W 118°13'3 6.4
2018-Aug-13 18:30N 33°43' W 118°14'3 5.3
2018-Aug-13 18:00N 33°45' W 118°16'0 0.8
2018-Aug-13 17:31N 33°46' W 118°16'0 0.0
2018-Aug-13 17:00N 33°46' W 118°16'2 4.0
2018-Aug-13 16:30N 33°44' W 118°16'1 1.5
2018-Aug-13 16:00N 33°43' W 118°16'1 2.2
2018-Aug-13 15:30N 33°43' W 118°15'3 5.6
2018-Aug-13 15:00N 33°40' W 118°15'4 7.2
2018-Aug-13 14:31N 33°37' W 118°18'3 6.6
2018-Aug-13 14:00N 33°36' W 118°21'4 7.6
2018-Aug-13 13:30N 33°35' W 118°26'4 7.5
2018-Aug-13 13:00N 33°36' W 118°30'4 7.8
2018-Aug-13 12:30N 33°36' W 118°35'4 7.8
2018-Aug-13 12:00N 33°36' W 118°40'4 7.4
2018-Aug-13 11:30N 33°37' W 118°44'4 7.6
2018-Aug-13 11:00N 33°37' W 118°49'4 7.7
2018-Aug-13 10:30N 33°38' W 118°53'4 7.9
2018-Aug-13 10:01N 33°38' W 118°58'4 7.9
2018-Aug-13 09:31N 33°38' W 119°03'4 7.4
2018-Aug-13 09:00N 33°39' W 119°07'4 7.4
2018-Aug-13 08:30N 33°39' W 119°11'4 7.3
2018-Aug-13 07:58N 33°40' W 119°16'4 7.4
2018-Aug-13 07:29N 33°40' W 119°20'4 7.8
2018-Aug-13 07:00N 33°40' W 119°25'4 8.1
2018-Aug-13 06:30N 33°40' W 119°30'4 8.0
2018-Aug-13 06:00N 33°41' W 119°35'4 7.8
2018-Aug-13 05:30N 33°41' W 119°39'4 7.5
2018-Aug-13 05:00N 33°41' W 119°44'4 7.4
2018-Aug-13 04:30N 33°41' W 119°48'4 7.5
2018-Aug-13 04:00N 33°42' W 119°53'4 7.3
2018-Aug-13 03:30N 33°43' W 119°57'4 7.2
2018-Aug-13 03:00N 33°43' W 120°01'5 8.1
2018-Aug-13 02:21N 33°44' W 120°08'3 8.0
2018-Aug-13 02:00N 33°44' W 120°11'4 7.5
2018-Aug-13 01:28N 33°45' W 120°16'3 7.5
2018-Aug-13 01:01N 33°46' W 120°19'4 7.5
2018-Aug-13 00:30N 33°48' W 120°23'4 7.7
2018-Aug-13 00:00N 33°50' W 120°27'4 8.2
2018-Aug-12 23:30N 33°53' W 120°31'4 8.4
2018-Aug-12 23:00N 33°55' W 120°36'4 8.1
2018-Aug-12 22:29N 33°57' W 120°40'4 7.8
2018-Aug-12 21:56N 33°59' W 120°44'3 7.1
2018-Aug-12 21:29N 34°01' W 120°48'3 7.1
2018-Aug-12 21:00N 34°03' W 120°51'4 7.7
2018-Aug-12 20:30N 34°06' W 120°54'4 7.7
2018-Aug-12 19:57N 34°09' W 120°56'4 7.7
2018-Aug-12 19:28N 34°12' W 120°59'4 7.4
2018-Aug-12 18:59N 34°15' W 121°01'4 7.4
2018-Aug-12 18:30N 34°18' W 121°04'4 7.0
2018-Aug-12 17:59N 34°21' W 121°06'4 7.6
2018-Aug-12 17:30N 34°24' W 121°09'4 7.6
2018-Aug-12 17:00N 34°27' W 121°12'4 7.8
2018-Aug-12 16:30N 34°31' W 121°14'4 7.3
2018-Aug-12 16:00N 34°34' W 121°17'4 7.4
2018-Aug-12 15:30N 34°37' W 121°19'4 7.4
2018-Aug-12 15:00N 34°40' W 121°21'4 7.3
2018-Aug-12 14:30N 34°43' W 121°24'4 7.0
2018-Aug-12 14:00N 34°46' W 121°26'4 7.3
2018-Aug-12 13:26N 34°50' W 121°28'3 7.2
2018-Aug-12 13:00N 34°52' W 121°31'4 7.4
2018-Aug-12 12:30N 34°55' W 121°33'4 7.5
2018-Aug-12 12:01N 34°58' W 121°36'4 7.6
2018-Aug-12 11:30N 35°02' W 121°38'4 7.5
2018-Aug-12 11:00N 35°05' W 121°41'4 7.5
2018-Aug-12 10:30N 35°08' W 121°43'4 7.5
2018-Aug-12 10:00N 35°11' W 121°46'12 7.6
2018-Aug-12 08:27N 35°21' W 121°54'4 7.9
2018-Aug-12 08:00N 35°24' W 121°56'4 7.9
2018-Aug-12 07:30N 35°27' W 121°59'4 7.8
2018-Aug-12 06:59N 35°31' W 122°01'4 7.7
2018-Aug-12 06:30N 35°34' W 122°04'4 7.5
2018-Aug-12 06:00N 35°37' W 122°06'4 7.5
2018-Aug-12 05:30N 35°40' W 122°09'4 7.5
2018-Aug-12 05:00N 35°43' W 122°12'4 7.6
2018-Aug-12 04:30N 35°46' W 122°15'4 7.6
2018-Aug-12 04:00N 35°49' W 122°17'4 7.5
2018-Aug-12 03:30N 35°52' W 122°20'4 7.7
2018-Aug-12 03:00N 35°56' W 122°22'4 7.8
2018-Aug-12 02:30N 35°59' W 122°24'4 7.8
2018-Aug-12 02:00N 36°03' W 122°26'4 7.7
2018-Aug-12 01:30N 36°06' W 122°29'4 7.6
2018-Aug-12 01:00N 36°09' W 122°31'4 7.4
2018-Aug-12 00:30N 36°12' W 122°33'4 7.6
2018-Aug-12 00:00N 36°16' W 122°35'4 7.8
2018-Aug-11 23:30N 36°19' W 122°37'4 7.5
2018-Aug-11 23:00N 36°23' W 122°39'4 7.7
2018-Aug-11 22:30N 36°26' W 122°41'4 7.6
2018-Aug-11 22:00N 36°30' W 122°43'4 7.5
2018-Aug-11 21:30N 36°33' W 122°44'4 7.6
2018-Aug-11 21:00N 36°37' W 122°44'4 7.6
2018-Aug-11 20:30N 36°41' W 122°44'4 7.8
2018-Aug-11 20:00N 36°45' W 122°44'4 8.0
2018-Aug-11 19:27N 36°49' W 122°44'4 8.0
2018-Aug-11 19:00N 36°53' W 122°44'11 7.7
2018-Aug-11 17:38N 37°04' W 122°44'2 7.6
2018-Aug-11 17:24N 37°05' W 122°44'5 7.7
2018-Aug-11 16:48N 37°10' W 122°43'3 7.6
2018-Aug-11 16:28N 37°13' W 122°43'3 7.5
2018-Aug-11 16:00N 37°16' W 122°43'4 7.7
2018-Aug-11 15:30N 37°20' W 122°43'4 7.8
2018-Aug-11 15:00N 37°24' W 122°44'4 8.0
2018-Aug-11 14:30N 37°28' W 122°44'4 8.0
2018-Aug-11 14:00N 37°32' W 122°43'4 7.8
2018-Aug-11 13:30N 37°36' W 122°43'4 7.4
2018-Aug-11 13:00N 37°39' W 122°43'4 7.4
2018-Aug-11 12:29N 37°42' W 122°40'4 7.3
2018-Aug-11 11:57N 37°46' W 122°38'4 8.5
2018-Aug-11 11:30N 37°47' W 122°34'510.0
2018-Aug-11 11:00N 37°49' W 122°28'4 7.3
2018-Aug-11 10:30N 37°52' W 122°25'2 3.2
2018-Aug-11 10:00N 37°54' W 122°26'1 2.7
2018-Aug-11 09:28N 37°55' W 122°25'1 1.2
2018-Aug-11 09:00N 37°55' W 122°25'0 0.4
2018-Aug-11 08:31N 37°55' W 122°25'0 0.0
2018-Aug-11 08:00N 37°55' W 122°25'0 0.0
2018-Aug-11 07:30N 37°55' W 122°25'0 0.0
2018-Aug-11 07:00N 37°55' W 122°25'0 0.0
2018-Aug-11 06:30N 37°55' W 122°25'0 0.0
2018-Aug-11 06:00N 37°55' W 122°25'0 0.0
2018-Aug-11 05:30N 37°55' W 122°25'0 0.0
2018-Aug-11 05:00N 37°55' W 122°25'0 0.0
2018-Aug-11 04:30N 37°55' W 122°25'0 0.0
2018-Aug-11 04:00N 37°55' W 122°25'0 0.0
2018-Aug-11 03:30N 37°55' W 122°25'0 0.0
2018-Aug-11 02:57N 37°55' W 122°25'0 0.0
2018-Aug-11 02:30N 37°55' W 122°25'0 0.0
2018-Aug-11 01:54N 37°55' W 122°25'0 0.0
2018-Aug-11 01:18N 37°55' W 122°25'0 0.0
2018-Aug-11 00:57N 37°55' W 122°25'0 0.0
2018-Aug-11 00:27N 37°55' W 122°25'0 0.0
2018-Aug-10 23:57N 37°55' W 122°25'0 0.0
2018-Aug-10 23:30N 37°55' W 122°25'0 0.0
2018-Aug-10 23:00N 37°55' W 122°25'0 0.0
2018-Aug-10 22:30N 37°55' W 122°25'0 0.0
2018-Aug-10 21:57N 37°55' W 122°25'0 0.0
2018-Aug-10 21:27N 37°55' W 122°25'0 0.0
2018-Aug-10 21:00N 37°55' W 122°25'0 0.0
2018-Aug-10 20:30N 37°55' W 122°25'0 0.0
2018-Aug-10 20:00N 37°55' W 122°25'0 0.0
2018-Aug-10 19:30N 37°55' W 122°25'0 0.0
2018-Aug-10 19:00N 37°55' W 122°25'0 0.0
2018-Aug-10 18:30N 37°55' W 122°25'0 0.0
2018-Aug-10 17:51N 37°55' W 122°25'0 0.0
2018-Aug-10 17:09N 37°55' W 122°25'0 0.0
2018-Aug-10 16:06N 37°55' W 122°25'0 0.1
2018-Aug-10 16:00N 37°55' W 122°25'0 0.0
2018-Aug-10 14:06N 37°55' W 122°25'0 0.0
2018-Aug-10 13:36N 37°55' W 122°25'0 0.0
2018-Aug-10 13:18N 37°55' W 122°25'0 0.0
2018-Aug-10 12:54N 37°55' W 122°25'0 0.0
2018-Aug-10 12:21N 37°55' W 122°25'0 0.0
2018-Aug-10 11:18N 37°55' W 122°25'0 0.0
2018-Aug-10 10:54N 37°55' W 122°25'0 0.0
2018-Aug-10 10:27N 37°55' W 122°25'0 0.0
2018-Aug-10 09:54N 37°55' W 122°25'0 0.0
2018-Aug-10 09:18N 37°55' W 122°25'0 0.0
2018-Aug-10 09:00N 37°55' W 122°25'0 0.0
2018-Aug-10 08:30N 37°55' W 122°25'0 0.0
2018-Aug-10 08:00N 37°55' W 122°25'0 0.0
2018-Aug-10 07:30N 37°55' W 122°25'0 0.0
2018-Aug-10 07:00N 37°55' W 122°25'0 0.0
2018-Aug-10 06:30N 37°55' W 122°25'0 0.0
2018-Aug-10 06:00N 37°55' W 122°25'0 0.0
2018-Aug-10 04:51N 37°55' W 122°25'0 0.0
2018-Aug-10 04:27N 37°55' W 122°25'0 0.0
2018-Aug-10 04:00N 37°55' W 122°25'0 0.0
2018-Aug-10 03:30N 37°55' W 122°25'0 0.0
2018-Aug-10 03:00N 37°55' W 122°25'0 0.0
2018-Aug-10 02:30N 37°55' W 122°25'0 0.0
2018-Aug-10 02:00N 37°55' W 122°25'0 0.0
2018-Aug-10 01:30N 37°55' W 122°25'0 0.0
2018-Aug-10 00:51N 37°55' W 122°25'0 0.0
2018-Aug-10 00:27N 37°55' W 122°25'0 0.0
2018-Aug-09 23:57N 37°55' W 122°25'0 0.0
2018-Aug-09 23:21N 37°55' W 122°25'0 0.0
2018-Aug-09 22:51N 37°55' W 122°25'0 0.8
2018-Aug-09 22:30N 37°55' W 122°25'0 0.0
2018-Aug-09 22:00N 37°55' W 122°25'2 3.6
2018-Aug-09 21:30N 37°54' W 122°23'1 2.2
2018-Aug-09 21:00N 37°55' W 122°22'0 0.1
2018-Aug-09 20:30N 37°55' W 122°22'0 0.0
2018-Aug-09 19:48N 37°55' W 122°22'0 0.0
2018-Aug-09 19:30N 37°55' W 122°22'0 0.0
2018-Aug-09 19:00N 37°55' W 122°22'0 0.0
2018-Aug-09 18:24N 37°55' W 122°22'0 0.0
2018-Aug-09 18:00N 37°55' W 122°22'0 0.0
2018-Aug-09 17:30N 37°55' W 122°22'0 0.0
2018-Aug-09 16:54N 37°55' W 122°22'0 0.0
2018-Aug-09 16:30N 37°55' W 122°22'0 0.0
2018-Aug-09 16:00N 37°55' W 122°22'0 0.0
2018-Aug-09 15:27N 37°55' W 122°22'0 0.0
2018-Aug-09 14:54N 37°55' W 122°22'0 0.0
2018-Aug-09 14:30N 37°55' W 122°22'0 0.0
2018-Aug-09 14:00N 37°55' W 122°22'0 0.0
2018-Aug-09 13:30N 37°55' W 122°22'0 0.0
2018-Aug-09 13:00N 37°55' W 122°22'0 0.0
2018-Aug-09 12:30N 37°55' W 122°22'0 0.0
2018-Aug-09 11:57N 37°55' W 122°22'0 0.0
2018-Aug-09 11:30N 37°55' W 122°22'0 0.0
2018-Aug-09 11:00N 37°55' W 122°22'0 0.0
2018-Aug-09 10:30N 37°55' W 122°22'0 0.0
2018-Aug-09 10:00N 37°55' W 122°22'0 0.0
2018-Aug-09 09:30N 37°55' W 122°22'0 0.0
2018-Aug-09 09:00N 37°55' W 122°22'0 0.0
2018-Aug-09 08:30N 37°55' W 122°22'0 0.0
2018-Aug-09 08:00N 37°55' W 122°22'0 0.0
2018-Aug-09 07:30N 37°55' W 122°22'0 0.0
2018-Aug-09 07:00N 37°55' W 122°22'0 0.0
2018-Aug-09 06:30N 37°55' W 122°22'0 0.0
2018-Aug-09 06:00N 37°55' W 122°22'0 0.0
2018-Aug-09 05:30N 37°55' W 122°22'0 0.0
2018-Aug-09 05:00N 37°55' W 122°22'0 0.0
2018-Aug-09 04:27N 37°55' W 122°22'0 0.0
2018-Aug-09 04:00N 37°55' W 122°22'0 0.0
2018-Aug-09 03:30N 37°55' W 122°22'0 0.0
2018-Aug-09 03:00N 37°55' W 122°22'0 0.0
2018-Aug-09 02:30N 37°55' W 122°22'0 0.0
2018-Aug-09 02:00N 37°55' W 122°22'0 0.0
2018-Aug-09 01:30N 37°55' W 122°22'0 0.0
2018-Aug-09 00:57N 37°55' W 122°22'0 0.0
2018-Aug-09 00:30N 37°55' W 122°22'0 0.0
2018-Aug-09 00:00N 37°55' W 122°22'0 0.0
2018-Aug-08 23:30N 37°55' W 122°22'0 0.0
2018-Aug-08 23:00N 37°55' W 122°22'0 0.0
2018-Aug-08 22:30N 37°55' W 122°22'0 0.0
2018-Aug-08 22:00N 37°55' W 122°22'0 0.0
2018-Aug-08 21:30N 37°55' W 122°22'0 0.0
2018-Aug-08 20:57N 37°55' W 122°22'0 0.0
2018-Aug-08 20:30N 37°55' W 122°22'0 0.0
2018-Aug-08 20:00N 37°55' W 122°22'0 0.0
2018-Aug-08 19:30N 37°55' W 122°22'0 0.0
2018-Aug-08 19:00N 37°55' W 122°22'0 0.0
2018-Aug-08 18:30N 37°55' W 122°22'0 0.0
2018-Aug-08 18:00N 37°55' W 122°22'0 0.0
2018-Aug-08 17:27N 37°55' W 122°22'0 0.0
2018-Aug-08 16:57N 37°55' W 122°22'0 0.0
2018-Aug-08 16:27N 37°55' W 122°22'0 0.0
2018-Aug-08 15:54N 37°55' W 122°22'0 0.0
2018-Aug-08 15:30N 37°55' W 122°22'0 0.0
2018-Aug-08 15:00N 37°55' W 122°22'0 0.0
2018-Aug-08 14:30N 37°55' W 122°22'0 0.0
2018-Aug-08 14:00N 37°55' W 122°22'0 0.0
2018-Aug-08 13:30N 37°55' W 122°22'0 0.0
2018-Aug-08 13:00N 37°55' W 122°22'0 0.0
2018-Aug-08 12:27N 37°55' W 122°22'0 0.0
2018-Aug-08 11:51N 37°55' W 122°22'0 0.0
2018-Aug-08 11:30N 37°55' W 122°22'0 0.0
2018-Aug-08 11:00N 37°55' W 122°22'0 0.0
2018-Aug-08 10:30N 37°55' W 122°22'0 0.0
2018-Aug-08 10:00N 37°55' W 122°22'0 0.0
2018-Aug-08 09:30N 37°55' W 122°22'0 0.0
2018-Aug-08 09:00N 37°55' W 122°22'0 0.0
2018-Aug-08 08:30N 37°55' W 122°22'0 0.0
2018-Aug-08 08:00N 37°55' W 122°22'0 0.0
2018-Aug-08 07:30N 37°55' W 122°22'0 0.0
2018-Aug-08 07:00N 37°55' W 122°22'0 0.0
2018-Aug-08 06:30N 37°55' W 122°22'0 0.0
2018-Aug-08 06:00N 37°55' W 122°22'0 0.0
2018-Aug-08 05:30N 37°55' W 122°22'0 0.0
2018-Aug-08 05:00N 37°55' W 122°22'0 0.0
2018-Aug-08 04:30N 37°55' W 122°22'0 0.0
2018-Aug-08 04:00N 37°55' W 122°22'0 0.0
2018-Aug-08 03:30N 37°55' W 122°22'0 0.0
2018-Aug-08 03:00N 37°55' W 122°22'0 0.0
2018-Aug-08 02:30N 37°55' W 122°22'0 0.0
2018-Aug-08 01:57N 37°55' W 122°22'0 0.0
2018-Aug-08 01:30N 37°55' W 122°22'0 0.0
2018-Aug-08 01:00N 37°55' W 122°22'0 0.0
2018-Aug-08 00:30N 37°55' W 122°22'0 0.0
2018-Aug-08 00:00N 37°55' W 122°22'0 0.0
2018-Aug-07 23:30N 37°55' W 122°22'0 0.0
2018-Aug-07 23:00N 37°55' W 122°22'0 0.0
2018-Aug-07 22:30N 37°55' W 122°22'0 0.0
2018-Aug-07 22:00N 37°55' W 122°22'0 0.0
2018-Aug-07 21:30N 37°55' W 122°22'0 0.0
2018-Aug-07 21:00N 37°55' W 122°22'0 0.0
2018-Aug-07 20:30N 37°55' W 122°22'0 0.0
2018-Aug-07 20:00N 37°55' W 122°22'0 0.0
2018-Aug-07 19:30N 37°55' W 122°22'0 0.0
2018-Aug-07 19:00N 37°55' W 122°22'0 0.0
2018-Aug-07 18:30N 37°55' W 122°22'0 0.0
2018-Aug-07 17:57N 37°55' W 122°22'0 0.0
2018-Aug-07 17:30N 37°55' W 122°22'0 0.0
2018-Aug-07 17:00N 37°55' W 122°22'0 0.0
2018-Aug-07 16:30N 37°55' W 122°22'0 0.0
2018-Aug-07 16:00N 37°55' W 122°22'0 0.1
2018-Aug-07 15:27N 37°55' W 122°22'0 0.0
2018-Aug-07 14:57N 37°55' W 122°22'0 0.0
2018-Aug-07 14:30N 37°55' W 122°22'0 0.0
2018-Aug-07 14:00N 37°55' W 122°22'0 0.0
2018-Aug-07 13:30N 37°55' W 122°22'0 0.0
2018-Aug-07 13:00N 37°55' W 122°22'0 0.0
2018-Aug-07 12:30N 37°55' W 122°22'0 0.0
2018-Aug-07 12:00N 37°55' W 122°22'0 0.0
2018-Aug-07 11:30N 37°55' W 122°22'0 0.0
2018-Aug-07 11:00N 37°55' W 122°22'0 0.0
2018-Aug-07 10:30N 37°55' W 122°22'0 0.0
2018-Aug-07 10:00N 37°55' W 122°22'0 0.0
2018-Aug-07 09:30N 37°55' W 122°22'0 0.0
2018-Aug-07 09:00N 37°55' W 122°22'0 0.0
2018-Aug-07 08:30N 37°55' W 122°22'0 0.0
2018-Aug-07 08:00N 37°55' W 122°22'0 0.0
2018-Aug-07 07:30N 37°55' W 122°22'0 0.0
2018-Aug-07 07:00N 37°55' W 122°22'0 0.0
2018-Aug-07 06:30N 37°55' W 122°22'0 0.0
2018-Aug-07 06:00N 37°55' W 122°22'0 0.0
2018-Aug-07 05:30N 37°55' W 122°22'0 0.0
2018-Aug-07 05:00N 37°55' W 122°22'0 0.0
2018-Aug-07 04:30N 37°55' W 122°22'0 0.0
2018-Aug-07 04:00N 37°55' W 122°22'0 0.0
2018-Aug-07 03:30N 37°55' W 122°22'0 0.0
2018-Aug-07 02:57N 37°55' W 122°22'0 0.0
2018-Aug-07 02:30N 37°55' W 122°22'0 0.0
2018-Aug-07 02:00N 37°55' W 122°22'0 0.0
2018-Aug-07 01:27N 37°55' W 122°22'0 0.0
2018-Aug-07 01:00N 37°55' W 122°22'0 0.0
2018-Aug-07 00:30N 37°55' W 122°22'0 0.0
2018-Aug-07 00:00N 37°55' W 122°22'0 0.0
2018-Aug-06 23:30N 37°55' W 122°22'0 0.0
2018-Aug-06 22:57N 37°55' W 122°22'0 0.0
2018-Aug-06 22:30N 37°55' W 122°22'0 0.0
2018-Aug-06 22:00N 37°55' W 122°22'0 0.0
2018-Aug-06 21:30N 37°55' W 122°22'0 0.0
2018-Aug-06 20:57N 37°55' W 122°22'0 0.0
2018-Aug-06 20:27N 37°55' W 122°22'0 0.0
2018-Aug-06 20:00N 37°55' W 122°22'0 0.0
2018-Aug-06 19:27N 37°55' W 122°22'0 0.0
2018-Aug-06 19:00N 37°55' W 122°22'0 0.0
2018-Aug-06 18:30N 37°55' W 122°22'0 0.0
2018-Aug-06 18:00N 37°55' W 122°22'0 0.0
2018-Aug-06 17:30N 37°55' W 122°22'0 0.0
2018-Aug-06 16:54N 37°55' W 122°22'0 0.0
2018-Aug-06 16:30N 37°55' W 122°22'0 0.0
2018-Aug-06 16:00N 37°55' W 122°22'0 0.0
2018-Aug-06 15:30N 37°55' W 122°22'0 0.0
2018-Aug-06 15:00N 37°55' W 122°22'0 0.0
2018-Aug-06 14:30N 37°55' W 122°22'0 0.0
2018-Aug-06 14:00N 37°55' W 122°22'0 0.0
2018-Aug-06 13:30N 37°55' W 122°22'0 0.0
2018-Aug-06 13:00N 37°55' W 122°22'0 0.0
2018-Aug-06 12:30N 37°55' W 122°22'0 0.0
2018-Aug-06 12:00N 37°55' W 122°22'0 0.0
2018-Aug-06 11:30N 37°55' W 122°22'0 0.0
2018-Aug-06 11:00N 37°55' W 122°22'0 0.0
2018-Aug-06 10:30N 37°55' W 122°22'0 0.0
2018-Aug-06 10:00N 37°55' W 122°22'0 0.0
2018-Aug-06 09:30N 37°55' W 122°22'0 0.0
2018-Aug-06 09:00N 37°55' W 122°22'0 0.0
2018-Aug-06 08:30N 37°55' W 122°22'  

Dump ship's entire track history